createdAt,value
2017-11-10T00:02:10.545Z,6.20
2017-11-10T00:04:40.028Z,6.30
2017-11-10T00:07:08.891Z,6.20
2017-11-10T00:09:36.548Z,6.30
2017-11-10T00:12:06.101Z,6.40
2017-11-10T00:14:38.597Z,6.40
2017-11-10T00:17:07.038Z,6.40
2017-11-10T00:19:37.545Z,6.40
2017-11-10T00:22:05.204Z,6.40
2017-11-10T00:24:33.003Z,6.40
2017-11-10T00:27:01.700Z,6.40
2017-11-10T00:32:17.449Z,6.40
2017-11-10T00:34:51.984Z,6.50
2017-11-10T00:37:27.796Z,6.50
2017-11-10T00:40:04.266Z,6.40
2017-11-10T00:42:35.662Z,6.50
2017-11-10T00:45:06.998Z,6.50
2017-11-10T00:47:50.624Z,6.50
2017-11-10T00:50:30.026Z,6.50
2017-11-10T00:53:09.295Z,6.50
2017-11-10T00:55:40.077Z,6.50
2017-11-10T00:58:08.602Z,6.50
2017-11-10T01:00:43.972Z,6.50
2017-11-10T01:03:12.810Z,6.50
2017-11-10T01:05:44.614Z,6.60
2017-11-10T01:08:14.465Z,6.60
2017-11-10T01:10:43.399Z,6.70
2017-11-10T01:13:12.278Z,6.70
2017-11-10T01:15:40.787Z,6.70
2017-11-10T01:18:10.202Z,6.80
2017-11-10T01:20:37.948Z,6.80
2017-11-10T01:23:06.946Z,6.80
2017-11-10T01:25:35.497Z,6.90
2017-11-10T01:30:42.868Z,7.00
2017-11-10T01:33:29.476Z,6.90
2017-11-10T01:36:01.624Z,6.90
2017-11-10T01:38:32.921Z,6.90
2017-11-10T01:41:22.508Z,6.90
2017-11-10T01:44:01.014Z,6.90
2017-11-10T01:46:32.054Z,6.90
2017-11-10T01:49:03.021Z,6.80
2017-11-10T01:51:32.998Z,6.80
2017-11-10T01:54:21.572Z,6.80
2017-11-10T01:56:58.099Z,6.80
2017-11-10T01:59:34.152Z,6.80
2017-11-10T02:02:02.285Z,6.70
2017-11-10T02:04:32.507Z,6.80
2017-11-10T02:07:18.069Z,6.80
2017-11-10T02:09:47.245Z,6.70
2017-11-10T02:12:15.803Z,6.80
2017-11-10T02:15:01.302Z,6.70
2017-11-10T02:17:32.974Z,6.60
2017-11-10T02:20:03.419Z,6.70
2017-11-10T02:22:54.114Z,6.50
2017-11-10T02:25:29.151Z,6.50
2017-11-10T02:30:44.665Z,6.60
2017-11-10T02:33:13.967Z,6.50
2017-11-10T02:35:42.753Z,6.40
2017-11-10T02:38:10.712Z,6.50
2017-11-10T02:40:39.195Z,6.50
2017-11-10T02:43:09.316Z,6.50
2017-11-10T02:45:36.959Z,6.50
2017-11-10T02:48:04.743Z,6.50
2017-11-10T02:50:33.446Z,6.40
2017-11-10T02:53:01.602Z,6.40
2017-11-10T02:55:33.784Z,6.40
2017-11-10T02:58:18.301Z,6.50
2017-11-10T03:00:58.454Z,6.40
2017-11-10T03:03:31.496Z,6.40
2017-11-10T03:06:03.505Z,6.40
2017-11-10T03:08:52.309Z,6.40
2017-11-10T03:11:26.567Z,6.40
2017-11-10T03:14:01.821Z,6.50
2017-11-10T03:16:29.497Z,6.50
2017-11-10T03:18:58.409Z,6.50
2017-11-10T03:21:41.877Z,6.60
2017-11-10T03:24:24.623Z,6.60
2017-11-10T03:27:00.165Z,6.70
2017-11-10T03:29:30.461Z,6.80
2017-11-10T03:32:00.525Z,6.70
2017-11-10T03:34:33.269Z,6.70
2017-11-10T03:37:03.849Z,6.80
2017-11-10T03:39:35.761Z,6.70
2017-11-10T03:42:03.438Z,6.70
2017-11-10T03:44:33.544Z,6.80
2017-11-10T03:47:03.948Z,6.80
2017-11-10T03:49:33.085Z,6.70
2017-11-10T03:52:02.991Z,6.70
2017-11-10T03:57:10.019Z,6.90
2017-11-10T03:59:45.517Z,6.90
2017-11-10T04:02:13.265Z,6.90
2017-11-10T04:04:41.025Z,6.80
2017-11-10T04:07:08.717Z,6.90
2017-11-10T04:12:15.669Z,6.90
2017-11-10T04:14:44.343Z,6.70
2017-11-10T04:17:12.299Z,6.70
2017-11-10T04:19:48.277Z,6.70
2017-11-10T04:22:17.923Z,6.70
2017-11-10T04:24:45.829Z,6.70
2017-11-10T04:27:13.541Z,6.70
2017-11-10T04:29:42.077Z,6.50
2017-11-10T04:32:23.702Z,6.50
2017-11-10T04:34:53.238Z,6.40
2017-11-10T04:37:38.695Z,6.20
2017-11-10T04:40:07.654Z,6.20
2017-11-10T04:42:35.346Z,6.30
2017-11-10T04:45:04.536Z,6.40
2017-11-10T04:47:34.297Z,6.20
2017-11-10T04:50:04.606Z,6.30
2017-11-10T04:52:40.268Z,6.20
2017-11-10T04:55:27.298Z,6.20
2017-11-10T04:58:03.043Z,6.30
2017-11-10T05:00:33.286Z,6.20
2017-11-10T05:03:03.262Z,6.30
2017-11-10T05:05:34.637Z,6.30
2017-11-10T05:08:04.474Z,6.30
2017-11-10T05:10:40.309Z,6.20
2017-11-10T05:13:10.047Z,6.10
2017-11-10T05:15:38.912Z,6.10
2017-11-10T05:18:07.434Z,6.00
2017-11-10T05:20:36.131Z,6.00
2017-11-10T05:23:04.392Z,6.00
2017-11-10T05:25:34.101Z,5.90
2017-11-10T05:28:05.108Z,5.90
2017-11-10T05:30:34.889Z,5.80
2017-11-10T05:33:07.425Z,5.90
2017-11-10T05:35:38.485Z,6.00
2017-11-10T05:38:11.042Z,6.00
2017-11-10T05:40:38.829Z,5.90
2017-11-10T05:43:07.962Z,6.00
2017-11-10T05:45:37.803Z,5.90
2017-11-10T05:48:05.586Z,5.90
2017-11-10T05:50:34.375Z,5.80
2017-11-10T05:53:04.485Z,5.90
2017-11-10T05:55:33.563Z,5.80
2017-11-10T05:58:03.955Z,5.90
2017-11-10T06:00:35.490Z,5.90
2017-11-10T06:03:03.652Z,5.80
2017-11-10T06:05:33.503Z,5.80
2017-11-10T06:08:01.631Z,5.80
2017-11-10T06:10:33.466Z,5.80
2017-11-10T06:13:01.957Z,5.70
2017-11-10T06:15:30.373Z,5.60
2017-11-10T06:17:58.665Z,5.60
2017-11-10T06:20:28.565Z,5.50
2017-11-10T06:22:58.827Z,5.60
2017-11-10T06:25:27.431Z,5.60
2017-11-10T06:27:56.164Z,5.60
2017-11-10T06:30:29.301Z,5.60
2017-11-10T06:33:00.727Z,5.70
2017-11-10T06:35:36.141Z,5.70
2017-11-10T06:38:06.636Z,5.80
2017-11-10T06:40:34.433Z,5.70
2017-11-10T06:43:02.721Z,5.90
2017-11-10T06:45:33.873Z,5.90
2017-11-10T06:48:03.581Z,5.90
2017-11-10T06:50:31.468Z,6.00
2017-11-10T06:52:59.801Z,5.90
2017-11-10T06:55:29.936Z,6.00
2017-11-10T06:57:57.646Z,5.90
2017-11-10T07:00:28.335Z,6.00
2017-11-10T07:02:57.155Z,6.00
2017-11-10T07:05:25.075Z,6.10
2017-11-10T07:07:53.122Z,6.10
2017-11-10T07:10:23.027Z,6.20
2017-11-10T07:12:56.646Z,6.30
2017-11-10T07:15:29.907Z,6.20
2017-11-10T07:18:01.200Z,6.30
2017-11-10T07:20:33.053Z,6.30
2017-11-10T07:23:03.269Z,6.30
2017-11-10T07:25:33.826Z,6.40
2017-11-10T07:28:03.605Z,6.30
2017-11-10T07:30:33.770Z,6.50
2017-11-10T07:33:05.885Z,6.50
2017-11-10T07:35:35.498Z,6.50
2017-11-10T07:38:06.151Z,6.60
2017-11-10T07:40:34.406Z,6.60
2017-11-10T07:43:05.916Z,6.60
2017-11-10T07:45:34.718Z,6.70
2017-11-10T07:48:03.544Z,6.80
2017-11-10T07:50:32.296Z,6.70
2017-11-10T07:53:01.840Z,6.80
2017-11-10T07:55:30.521Z,6.80
2017-11-10T07:57:59.197Z,6.80
2017-11-10T08:00:27.461Z,6.80
2017-11-10T08:02:56.727Z,6.90
2017-11-10T08:05:33.617Z,7.10
2017-11-10T08:08:03.145Z,7.10
2017-11-10T08:10:33.919Z,7.20
2017-11-10T08:13:02.538Z,7.20
2017-11-10T08:15:40.550Z,7.30
2017-11-10T08:18:09.052Z,7.30
2017-11-10T08:20:36.588Z,7.30
2017-11-10T08:23:04.163Z,7.40
2017-11-10T08:25:32.698Z,7.50
2017-11-10T08:28:02.799Z,7.50
2017-11-10T08:30:31.849Z,7.50
2017-11-10T08:33:02.042Z,7.50
2017-11-10T08:35:30.813Z,7.60
2017-11-10T08:38:00.344Z,7.60
2017-11-10T08:40:31.980Z,7.60
2017-11-10T08:43:00.729Z,7.60
2017-11-10T08:45:29.369Z,7.50
2017-11-10T08:47:59.361Z,7.50
2017-11-10T08:50:29.227Z,7.60
2017-11-10T08:52:59.418Z,7.60
2017-11-10T08:55:27.750Z,7.50
2017-11-10T08:57:58.018Z,7.70
2017-11-10T09:00:28.850Z,7.60
2017-11-10T09:03:00.353Z,7.60
2017-11-10T09:05:30.737Z,7.70
2017-11-10T09:08:00.178Z,7.70
2017-11-10T09:10:29.180Z,7.80
2017-11-10T09:12:59.806Z,7.80
2017-11-10T09:15:30.185Z,7.80
2017-11-10T09:18:02.671Z,7.70
2017-11-10T09:20:31.246Z,7.70
2017-11-10T09:22:59.996Z,7.50
2017-11-10T09:25:28.601Z,7.50
2017-11-10T09:27:59.353Z,7.70
2017-11-10T09:30:31.689Z,7.70
2017-11-10T09:33:06.449Z,7.70
2017-11-10T09:38:45.265Z,7.70
2017-11-10T09:41:31.588Z,7.70
2017-11-10T09:44:01.651Z,7.70
2017-11-10T09:46:33.947Z,7.70
2017-11-10T09:49:21.491Z,7.80
2017-11-10T09:55:13.954Z,8.10
2017-11-10T09:57:57.694Z,8.10
2017-11-10T10:00:46.655Z,8.10
2017-11-10T10:03:22.610Z,8.10
2017-11-10T10:09:03.900Z,8.30
2017-11-10T10:11:49.920Z,8.40
2017-11-10T10:14:23.882Z,8.40
2017-11-10T10:16:58.150Z,8.30
2017-11-10T10:19:42.529Z,8.40
2017-11-10T10:22:11.253Z,8.40
2017-11-10T10:24:39.562Z,8.50
2017-11-10T10:27:07.137Z,8.40
2017-11-10T10:29:34.660Z,8.50
2017-11-10T10:32:02.533Z,8.50
2017-11-10T10:34:32.032Z,8.50
2017-11-10T10:37:01.020Z,8.40
2017-11-10T10:39:29.225Z,8.50
2017-11-10T10:41:58.427Z,8.50
2017-11-10T10:44:27.570Z,8.50
2017-11-10T10:46:55.861Z,8.50
2017-11-10T10:49:25.252Z,8.50
2017-11-10T10:51:58.134Z,8.60
2017-11-10T10:54:26.687Z,8.50
2017-11-10T10:56:56.130Z,8.50
2017-11-10T10:59:26.965Z,8.60
2017-11-10T11:01:55.324Z,8.70
2017-11-10T11:04:24.990Z,8.70
2017-11-10T11:06:54.069Z,8.70
2017-11-10T11:09:23.638Z,8.80
2017-11-10T11:11:54.147Z,8.80
2017-11-10T11:14:24.543Z,8.80
2017-11-10T11:16:56.156Z,8.80
2017-11-10T11:19:25.124Z,8.80
2017-11-10T11:21:55.152Z,8.70
2017-11-10T11:24:26.576Z,8.70
2017-11-10T11:26:57.762Z,8.80
2017-11-10T11:29:29.850Z,8.70
2017-11-10T11:32:01.410Z,8.50
2017-11-10T11:34:31.314Z,8.50
2017-11-10T11:36:59.970Z,8.50
2017-11-10T11:39:30.953Z,8.50
2017-11-10T11:42:00.216Z,8.50
2017-11-10T11:44:46.001Z,8.40
2017-11-10T11:47:30.618Z,8.30
2017-11-10T11:52:58.943Z,8.30
2017-11-10T11:55:30.758Z,8.20
2017-11-10T11:57:59.542Z,8.00
2017-11-10T12:00:32.940Z,8.10
2017-11-10T12:03:02.895Z,8.00
2017-11-10T12:05:32.452Z,8.00
2017-11-10T12:08:01.918Z,7.90
2017-11-10T12:10:30.814Z,7.80
2017-11-10T12:13:01.114Z,7.80
2017-11-10T12:15:30.046Z,7.70
2017-11-10T12:18:00.909Z,7.60
2017-11-10T12:20:29.233Z,7.60
2017-11-10T12:22:59.256Z,7.50
2017-11-10T12:25:28.048Z,7.50
2017-11-10T12:27:57.203Z,7.40
2017-11-10T12:30:25.544Z,7.40
2017-11-10T12:32:57.459Z,7.30
2017-11-10T12:35:27.900Z,7.30
2017-11-10T12:37:57.142Z,7.30
2017-11-10T12:40:27.052Z,7.20
2017-11-10T12:42:56.939Z,7.10
2017-11-10T12:45:26.120Z,7.20
2017-11-10T12:47:56.113Z,7.10
2017-11-10T12:50:24.286Z,7.10
2017-11-10T12:52:54.301Z,7.20
2017-11-10T12:55:25.420Z,7.20
2017-11-10T12:57:54.433Z,7.30
2017-11-10T13:00:24.139Z,7.20
2017-11-10T13:02:57.069Z,7.20
2017-11-10T13:05:25.658Z,7.20
2017-11-10T13:07:54.165Z,7.20
2017-11-10T13:10:26.236Z,7.20
2017-11-10T13:12:55.029Z,7.20
2017-11-10T13:15:23.666Z,7.20
2017-11-10T13:17:54.063Z,7.20
2017-11-10T13:20:22.614Z,7.20
2017-11-10T13:22:55.516Z,7.20
2017-11-10T13:25:25.375Z,7.20
2017-11-10T13:27:55.349Z,7.20
2017-11-10T13:30:24.407Z,7.20
2017-11-10T13:32:54.942Z,7.10
2017-11-10T13:35:24.068Z,7.10
2017-11-10T13:37:52.985Z,7.10
2017-11-10T13:40:24.990Z,7.10
2017-11-10T13:42:55.273Z,7.10
2017-11-10T13:45:24.202Z,7.00
2017-11-10T13:47:53.957Z,7.10
2017-11-10T13:50:24.952Z,7.10
2017-11-10T13:52:53.509Z,7.20
2017-11-10T13:55:23.152Z,7.20
2017-11-10T13:57:54.598Z,7.20
2017-11-10T14:00:24.922Z,7.30
2017-11-10T14:02:52.695Z,7.30
2017-11-10T14:05:20.444Z,7.40
2017-11-10T14:07:52.566Z,7.40
2017-11-10T14:10:20.973Z,7.40
2017-11-10T14:12:49.510Z,7.50
2017-11-10T14:15:17.179Z,7.50
2017-11-10T14:17:46.110Z,7.50
2017-11-10T14:20:14.699Z,7.50
2017-11-10T14:22:42.605Z,7.50
2017-11-10T14:25:12.261Z,7.50
2017-11-10T14:27:39.964Z,7.50
2017-11-10T14:30:07.700Z,7.50
2017-11-10T14:32:35.347Z,7.60
2017-11-10T14:35:03.853Z,7.60
2017-11-10T14:37:32.361Z,7.60
2017-11-10T14:39:59.985Z,7.60
2017-11-10T14:42:27.877Z,7.60
2017-11-10T14:44:56.016Z,7.60
2017-11-10T14:47:24.549Z,7.60
2017-11-10T14:49:53.552Z,7.70
2017-11-10T14:52:22.035Z,7.70
2017-11-10T14:54:49.737Z,7.70
2017-11-10T14:57:17.422Z,7.70
2017-11-10T14:59:45.025Z,7.70
2017-11-10T15:02:12.622Z,7.70
2017-11-10T15:04:40.354Z,7.80
2017-11-10T15:07:08.625Z,7.80
2017-11-10T15:09:36.219Z,7.80
2017-11-10T15:12:03.962Z,7.90
2017-11-10T15:14:33.380Z,7.80
2017-11-10T15:17:01.016Z,7.80
2017-11-10T15:19:29.745Z,7.80
2017-11-10T15:21:58.229Z,7.80
2017-11-10T15:24:27.629Z,7.90
2017-11-10T15:26:56.180Z,7.80
2017-11-10T15:29:23.898Z,7.80
2017-11-10T15:31:52.432Z,7.80
2017-11-10T15:34:20.383Z,7.80
2017-11-10T15:36:48.143Z,7.90
2017-11-10T15:39:15.829Z,7.90
2017-11-10T15:41:44.246Z,7.90
2017-11-10T15:44:12.628Z,7.90
2017-11-10T15:46:40.963Z,8.00
2017-11-10T15:49:09.095Z,8.00
2017-11-10T15:51:36.677Z,8.00
2017-11-10T15:54:04.241Z,8.00
2017-11-10T15:56:31.831Z,8.10
2017-11-10T15:59:00.182Z,8.10
2017-11-10T16:01:29.103Z,8.00
2017-11-10T16:03:58.427Z,8.00
2017-11-10T16:06:27.553Z,8.00
2017-11-10T16:08:55.943Z,8.10
2017-11-10T16:11:26.031Z,8.10
2017-11-10T16:13:53.884Z,8.10
2017-11-10T16:16:22.330Z,8.10
2017-11-10T16:18:49.923Z,8.10
2017-11-10T16:21:18.236Z,8.10
2017-11-10T16:23:46.393Z,8.10
2017-11-10T16:26:14.013Z,8.10
2017-11-10T16:28:42.485Z,8.10
2017-11-10T16:31:10.774Z,8.00
2017-11-10T16:33:39.110Z,8.00
2017-11-10T16:36:06.652Z,8.00
2017-11-10T16:38:34.232Z,8.00
2017-11-10T16:41:02.412Z,8.00
2017-11-10T16:43:30.842Z,8.00
2017-11-10T16:45:58.470Z,7.90
2017-11-10T16:48:26.852Z,8.00
2017-11-10T16:50:58.260Z,8.00
2017-11-10T16:53:31.601Z,8.00
2017-11-10T16:55:59.208Z,8.00
2017-11-10T16:58:26.810Z,7.90
2017-11-10T17:00:56.336Z,7.90
2017-11-10T17:03:24.128Z,7.90
2017-11-10T17:05:52.866Z,7.90
2017-11-10T17:08:21.388Z,7.90
2017-11-10T17:10:50.325Z,7.90
2017-11-10T17:13:19.450Z,8.00
2017-11-10T17:15:49.544Z,7.90
2017-11-10T17:18:18.073Z,7.90
2017-11-10T17:20:47.393Z,7.90
2017-11-10T17:23:15.717Z,8.00
2017-11-10T17:25:44.789Z,7.90
2017-11-10T17:28:12.321Z,7.90
2017-11-10T17:30:40.665Z,8.00
2017-11-10T17:33:08.208Z,8.00
2017-11-10T17:35:35.841Z,7.90
2017-11-10T17:38:03.385Z,8.00
2017-11-10T17:40:31.544Z,8.00
2017-11-10T17:42:59.744Z,8.00
2017-11-10T17:45:28.078Z,8.00
2017-11-10T17:47:57.143Z,8.00
2017-11-10T17:50:25.526Z,8.00
2017-11-10T17:52:54.792Z,8.00
2017-11-10T17:55:23.954Z,8.00
2017-11-10T17:57:54.997Z,8.10
2017-11-10T18:00:24.763Z,8.00
2017-11-10T18:02:53.347Z,8.00
2017-11-10T18:05:23.681Z,8.00
2017-11-10T18:07:53.374Z,8.10
2017-11-10T18:10:23.819Z,8.10
2017-11-10T18:12:55.573Z,8.10
2017-11-10T18:15:27.061Z,8.10
2017-11-10T18:20:45.756Z,8.10
2017-11-10T18:23:13.284Z,8.10
2017-11-10T18:25:41.826Z,8.10
2017-11-10T18:28:10.352Z,8.10
2017-11-10T18:30:37.921Z,8.10
2017-11-10T18:33:05.468Z,8.10
2017-11-10T18:35:34.812Z,8.10
2017-11-10T18:38:02.940Z,8.20
2017-11-10T18:40:30.530Z,8.10
2017-11-10T18:42:59.004Z,8.10
2017-11-10T18:45:27.387Z,8.20
2017-11-10T18:47:55.429Z,8.20
2017-11-10T18:50:23.105Z,8.20
2017-11-10T18:52:51.243Z,8.20
2017-11-10T18:58:21.400Z,8.20
2017-11-10T19:00:54.860Z,8.20
2017-11-10T19:03:25.945Z,8.20
2017-11-10T19:05:54.748Z,8.30
2017-11-10T19:08:24.056Z,8.30
2017-11-10T19:10:55.828Z,8.30
2017-11-10T19:13:24.830Z,8.30
2017-11-10T19:15:54.112Z,8.30
2017-11-10T19:18:23.895Z,8.30
2017-11-10T19:20:53.330Z,8.30
2017-11-10T19:23:25.439Z,8.30
2017-11-10T19:25:54.888Z,8.30
2017-11-10T19:28:26.168Z,8.30
2017-11-10T19:30:55.107Z,8.20
2017-11-10T19:33:24.645Z,8.30
2017-11-10T19:35:55.191Z,8.30
2017-11-10T19:38:24.312Z,8.30
2017-11-10T19:40:54.497Z,8.30
2017-11-10T19:43:24.268Z,8.30
2017-11-10T19:45:55.633Z,8.30
2017-11-10T19:48:27.471Z,8.30
2017-11-10T19:50:56.415Z,8.40
2017-11-10T19:53:25.403Z,8.40
2017-11-10T19:55:53.164Z,8.40
2017-11-10T19:58:21.723Z,8.40
2017-11-10T20:00:49.402Z,8.30
2017-11-10T20:03:17.031Z,8.30
2017-11-10T20:05:44.601Z,8.30
2017-11-10T20:08:14.231Z,8.30
2017-11-10T20:10:41.841Z,8.30
2017-11-10T20:13:09.413Z,8.30
2017-11-10T20:15:37.084Z,8.30
2017-11-10T20:18:04.750Z,8.30
2017-11-10T20:20:32.317Z,8.30
2017-11-10T20:22:59.916Z,8.30
2017-11-10T20:25:27.473Z,8.30
2017-11-10T20:27:55.898Z,8.30
2017-11-10T20:30:23.497Z,8.40
2017-11-10T20:32:51.240Z,8.30
2017-11-10T20:35:20.407Z,8.40
2017-11-10T20:37:48.680Z,8.40
2017-11-10T20:40:17.324Z,8.40
2017-11-10T20:42:45.700Z,8.30
2017-11-10T20:45:13.376Z,8.30
2017-11-10T20:47:41.561Z,8.30
2017-11-10T20:50:09.099Z,8.30
2017-11-10T20:52:38.205Z,8.50
2017-11-10T20:55:05.745Z,8.40
2017-11-10T20:57:33.396Z,8.40
2017-11-10T21:00:01.106Z,8.50
2017-11-10T21:02:28.701Z,8.50
2017-11-10T21:04:56.248Z,8.50
2017-11-10T21:07:24.608Z,8.50
2017-11-10T21:09:52.183Z,8.50
2017-11-10T21:12:19.904Z,8.50
2017-11-10T21:14:47.587Z,8.60
2017-11-10T21:17:16.012Z,8.50
2017-11-10T21:19:44.213Z,8.50
2017-11-10T21:22:11.789Z,8.60
2017-11-10T21:24:41.003Z,8.60
2017-11-10T21:27:10.188Z,8.50
2017-11-10T21:29:41.238Z,8.50
2017-11-10T21:32:08.837Z,8.50
2017-11-10T21:34:38.127Z,8.60
2017-11-10T21:37:07.503Z,8.60
2017-11-10T21:39:35.079Z,8.50
2017-11-10T21:42:06.487Z,8.60
2017-11-10T21:44:35.596Z,8.50
2017-11-10T21:47:03.184Z,8.60
2017-11-10T21:49:31.887Z,8.60
2017-11-10T21:51:59.653Z,8.60
2017-11-10T21:54:27.327Z,8.50
2017-11-10T21:56:55.646Z,8.50
2017-11-10T21:59:25.375Z,8.60
2017-11-10T22:01:53.339Z,8.60
2017-11-10T22:04:22.392Z,8.70
2017-11-10T22:06:50.158Z,8.60
2017-11-10T22:09:17.811Z,8.70
2017-11-10T22:11:45.465Z,8.70
2017-11-10T22:14:13.690Z,8.70
2017-11-10T22:16:41.327Z,8.70
2017-11-10T22:19:08.862Z,8.70
2017-11-10T22:21:36.437Z,8.70
2017-11-10T22:24:03.975Z,8.80
2017-11-10T22:26:31.504Z,8.80
2017-11-10T22:29:00.952Z,8.80
2017-11-10T22:31:30.053Z,8.80
2017-11-10T22:33:58.341Z,8.90
2017-11-10T22:36:26.817Z,8.80
2017-11-10T22:38:55.220Z,8.80
2017-11-10T22:41:25.704Z,8.80
2017-11-10T22:43:55.206Z,8.80
2017-11-10T22:46:24.575Z,8.80
2017-11-10T22:48:54.830Z,8.80
2017-11-10T22:51:28.153Z,8.80
2017-11-10T22:54:02.436Z,8.80
2017-11-10T22:56:30.759Z,8.80
2017-11-10T22:59:00.103Z,8.80
2017-11-10T23:01:28.110Z,8.80
2017-11-10T23:03:56.698Z,8.80
2017-11-10T23:06:25.493Z,8.80
2017-11-10T23:08:55.513Z,8.80
2017-11-10T23:11:25.087Z,8.80
2017-11-10T23:13:53.436Z,8.80
2017-11-10T23:16:22.801Z,8.70
2017-11-10T23:18:53.946Z,8.80
2017-11-10T23:21:24.695Z,8.80
2017-11-10T23:23:52.848Z,8.80
2017-11-10T23:26:27.117Z,8.70
2017-11-10T23:28:56.902Z,8.80
2017-11-10T23:31:25.945Z,8.70
2017-11-10T23:33:58.904Z,8.70
2017-11-10T23:36:29.231Z,8.80
2017-11-10T23:39:01.302Z,8.80
2017-11-10T23:41:32.705Z,8.90
2017-11-10T23:44:03.860Z,8.80
2017-11-10T23:46:35.154Z,8.90
2017-11-10T23:49:06.066Z,8.90
2017-11-10T23:51:35.798Z,8.90
2017-11-10T23:54:04.398Z,8.90
2017-11-10T23:56:36.556Z,8.90
2017-11-10T23:59:05.923Z,8.90
